Time;durP1;ratioP1;P1;durP2;ratioP2;P2;SDS_P1;SDS_P2;PMS_P1;PMS_P2;Temp;Humidity;BMP_temperature;BMP_pressure;BME280_temperature;BME280_humidity;BME280_pressure;Samples;Min_cycle;Max_cycle;Signal;HPM_P1;HPM_P2
2021/04/25 00:00:17;;;;;;;0.80;0.60;;;6.10;68.00;;;5.94;100.00;-20843.94;5093519;28;20188;-67
2021/04/25 00:02:44;;;;;;;0.70;0.60;;;6.00;68.90;;;5.77;100.00;-20839.34;5085368;28;20188;-67
2021/04/25 00:05:14;;;;;;;0.70;0.60;;;5.80;72.80;;;5.92;100.00;-20843.38;5074554;28;20192;-67
2021/04/25 00:07:42;;;;;;;0.70;0.60;;;5.90;72.00;;;5.78;100.00;-20839.63;5074697;28;20180;-67
2021/04/25 00:10:12;;;;;;;0.70;0.60;;;5.80;72.50;;;5.70;100.00;-20837.41;5074104;28;20197;-66
2021/04/25 00:12:43;;;;;;;0.70;0.60;;;5.80;72.40;;;5.60;100.00;-20834.63;5073657;28;20216;-67
2021/04/25 00:15:14;;;;;;;0.80;0.60;;;5.60;74.60;;;5.52;100.00;-20832.53;5072780;28;20242;-67
2021/04/25 00:17:41;;;;;;;0.80;0.70;;;5.50;77.00;;;5.35;100.00;-20827.66;5073133;28;20189;-67
2021/04/25 00:20:11;;;;;;;0.80;0.70;;;5.30;79.50;;;5.31;100.00;-20826.81;5078186;28;20271;-67
2021/04/25 00:22:39;;;;;;;0.70;0.60;;;5.40;79.50;;;5.26;100.00;-20825.44;5091883;28;20207;-67
2021/04/25 00:25:08;;;;;;;0.80;0.80;;;5.30;81.40;;;5.25;100.00;-20825.16;5109276;28;20192;-67
2021/04/25 00:27:36;;;;;;;13.68;2.30;;;5.30;81.40;;;5.04;100.00;-20819.31;5086266;28;20213;-66
2021/04/25 00:30:07;;;;;;;0.80;0.70;;;5.10;84.20;;;5.19;100.00;-20823.50;5076145;28;20707;-66
2021/04/25 00:32:35;;;;;;;0.70;0.60;;;5.20;83.50;;;5.33;100.00;-20827.38;5080834;28;20180;-66
2021/04/25 00:35:04;;;;;;;0.80;0.70;;;5.30;83.20;;;5.28;100.00;-20826.00;5092705;28;20192;-67
2021/04/25 00:37:32;;;;;;;0.70;0.60;;;5.30;84.00;;;5.17;100.00;-20822.94;5091007;28;20556;-67
2021/04/25 00:39:59;;;;;;;0.77;0.70;;;5.20;84.80;;;5.21;100.00;-20824.03;5081668;28;20271;-66
2021/04/25 00:42:28;;;;;;;0.73;0.65;;;5.20;84.50;;;5.11;100.00;-20821.13;5092407;28;20236;-68
2021/04/25 00:44:55;;;;;;;0.70;0.60;;;5.10;85.40;;;4.95;100.00;-20816.94;5091810;28;20188;-67
2021/04/25 00:47:23;;;;;;;0.80;0.70;;;5.00;87.60;;;4.92;100.00;-20815.97;5089979;28;20657;-67
2021/04/25 00:49:52;;;;;;;0.80;0.70;;;4.90;89.50;;;4.82;100.00;-20813.47;5092588;28;20561;-67
2021/04/25 00:52:21;;;;;;;1.05;0.98;;;4.90;90.00;;;4.76;100.00;-20811.66;5072376;28;20204;-68
2021/04/25 00:54:49;;;;;;;0.80;0.70;;;4.80;90.30;;;4.59;100.00;-20807.06;5076422;28;20184;-67
2021/04/25 00:57:18;;;;;;;0.80;0.60;;;4.60;91.10;;;4.46;100.00;-20803.44;5074642;28;20220;-67
2021/04/25 00:59:44;;;;;;;0.80;0.70;;;4.50;93.10;;;4.46;100.00;-20803.56;5089365;28;20657;-66
2021/04/25 01:02:12;;;;;;;0.80;0.60;;;4.60;93.40;;;4.43;100.00;-20802.59;5078878;28;20589;-67
2021/04/25 01:04:39;;;;;;;0.80;0.80;;;4.60;93.50;;;4.39;100.00;-20801.47;5090161;28;20190;-66
2021/04/25 01:07:07;;;;;;;0.80;0.70;;;4.60;94.20;;;4.27;100.00;-20798.41;5082490;28;20276;-67
2021/04/25 01:09:35;;;;;;;0.80;0.75;;;4.40;94.80;;;4.10;100.00;-20793.69;5076315;28;20222;-66
2021/04/25 01:12:02;;;;;;;0.80;0.70;;;4.20;95.40;;;3.97;100.00;-20790.06;5089944;28;20577;-68
2021/04/25 01:14:30;;;;;;;0.75;0.60;;;4.00;97.40;;;3.84;100.00;-20786.72;5071962;28;20284;-67
2021/04/25 01:16:58;;;;;;;0.80;0.70;;;4.00;98.80;;;3.99;100.00;-20790.63;5078333;28;20191;-67
2021/04/25 01:19:25;;;;;;;0.80;0.77;;;4.20;98.90;;;4.03;100.00;-20791.72;5091562;28;20580;-66
2021/04/25 01:21:53;;;;;;;0.80;0.73;;;4.30;98.10;;;4.09;100.00;-20793.41;5082976;28;20189;-67
2021/04/25 01:24:20;;;;;;;0.80;0.80;;;4.30;97.80;;;4.08;100.00;-20793.25;5078279;28;20198;-66
2021/04/25 01:26:48;;;;;;;0.80;0.70;;;4.20;98.70;;;3.91;100.00;-20788.38;5073301;28;20219;-66
2021/04/25 01:29:15;;;;;;;0.80;0.70;;;4.00;99.70;;;4.09;100.00;-20793.41;5070637;28;20301;-69
2021/04/25 01:31:42;;;;;;;0.70;0.70;;;4.00;99.90;;;4.19;100.00;-20796.19;5084743;28;20242;-67
2021/04/25 01:34:10;;;;;;;0.80;0.80;;;4.30;99.90;;;4.28;100.00;-20798.69;5091968;28;20242;-66
2021/04/25 01:36:37;;;;;;;0.80;0.60;;;4.30;99.70;;;4.28;100.00;-20798.69;5081833;28;20219;-67
2021/04/25 01:39:06;;;;;;;0.80;0.60;;;4.40;99.00;;;4.31;100.00;-20799.53;5072994;28;20668;-67
2021/04/25 01:41:33;;;;;;;0.80;0.70;;;4.40;99.30;;;4.14;100.00;-20794.66;5076818;28;20664;-67
2021/04/25 01:44:01;;;;;;;0.80;0.70;;;4.20;99.70;;;4.07;100.00;-20792.97;5072951;28;20514;-67
2021/04/25 01:46:30;;;;;;;0.80;0.80;;;4.10;99.90;;;3.97;100.00;-20790.06;5083398;28;20196;-67
2021/04/25 01:48:57;;;;;;;0.80;0.70;;;4.00;99.90;;;3.95;100.00;-20789.50;5082034;28;20196;-66
2021/04/25 01:51:24;;;;;;;0.80;0.70;;;4.00;99.90;;;3.75;100.00;-20784.19;5080987;28;20188;-66
2021/04/25 01:53:52;;;;;;;0.70;0.60;;;3.80;99.90;;;3.84;100.00;-20786.56;5077370;28;20196;-67
2021/04/25 01:56:21;;;;;;;0.80;0.70;;;3.90;99.90;;;3.96;100.00;-20789.91;5091792;28;20203;-66
2021/04/25 01:58:48;;;;;;;0.80;0.70;;;4.00;99.90;;;3.90;100.00;-20788.09;5078080;28;20246;-66
2021/04/25 02:01:16;;;;;;;0.70;0.60;;;3.90;99.90;;;3.96;100.00;-20789.91;5071791;28;20290;-67
2021/04/25 02:03:44;;;;;;;0.80;0.80;;;4.00;99.90;;;3.86;100.00;-20787.25;5085379;28;20200;-66
2021/04/25 02:06:12;;;;;;;0.80;0.63;;;3.90;99.90;;;3.73;100.00;-20783.50;5088937;28;20656;-67
2021/04/25 02:08:40;;;;;;;0.80;0.70;;;3.80;99.90;;;3.95;100.00;-20789.50;5112916;28;20205;-67
2021/04/25 02:11:07;;;;;;;0.70;0.60;;;3.90;99.90;;;4.08;100.00;-20793.13;5091925;28;20668;-68
2021/04/25 02:13:36;;;;;;;0.80;0.80;;;4.10;99.90;;;3.91;100.00;-20788.38;5079191;28;20217;-66
2021/04/25 02:16:05;;;;;;;0.70;0.60;;;3.90;99.90;;;3.77;100.00;-20784.75;5087935;28;20211;-67
2021/04/25 02:18:32;;;;;;;0.80;0.70;;;3.80;99.90;;;3.77;100.00;-20784.63;5085812;28;20660;-67
2021/04/25 02:21:00;;;;;;;0.93;0.85;;;3.80;99.90;;;3.66;100.00;-20781.56;5087237;28;20184;-66
2021/04/25 02:23:27;;;;;;;0.70;0.70;;;3.70;99.90;;;3.57;100.00;-20779.19;5077043;28;20632;-67
2021/04/25 02:25:55;;;;;;;0.80;0.60;;;3.70;99.90;;;3.50;100.00;-20777.22;5088516;28;20196;-67
2021/04/25 02:28:22;;;;;;;0.75;0.65;;;3.50;99.90;;;3.57;100.00;-20779.31;5096933;28;20208;-66
2021/04/25 02:30:50;;;;;;;0.80;0.70;;;3.50;99.90;;;3.54;100.00;-20778.34;5095565;28;20280;-66
2021/04/25 02:33:17;;;;;;;0.80;0.70;;;3.40;99.90;;;3.60;100.00;-20780.00;5073056;28;20258;-66
2021/04/25 02:35:44;;;;;;;0.80;0.73;;;3.50;99.90;;;3.65;100.00;-20781.41;5087163;28;20217;-66
2021/04/25 02:38:12;;;;;;;0.80;0.70;;;3.50;99.90;;;3.70;100.00;-20782.81;5075972;28;20215;-67
2021/04/25 02:40:40;;;;;;;0.82;0.82;;;3.50;99.90;;;3.58;100.00;-20779.47;5076022;28;20644;-67
2021/04/25 02:43:07;;;;;;;0.80;0.70;;;3.40;99.90;;;3.60;100.00;-20780.00;5085631;28;20307;-66
2021/04/25 02:45:36;;;;;;;0.80;0.70;;;3.50;99.90;;;3.58;100.00;-20779.47;5096344;28;20184;-66
2021/04/25 02:48:07;;;;;;;0.80;0.70;;;3.50;99.90;;;3.53;100.00;-20778.19;5090028;28;20687;-67
2021/04/25 02:50:40;;;;;;;0.80;0.70;;;3.30;99.90;;;3.82;100.00;-20786.00;5075736;28;20246;-66
2021/04/25 02:53:08;;;;;;;0.80;0.70;;;3.50;99.90;;;3.54;100.00;-20778.47;5093342;28;20532;-67
2021/04/25 02:55:35;;;;;;;0.70;0.50;;;3.40;99.90;;;3.65;100.00;-20781.28;5076950;28;20912;-68
2021/04/25 02:58:03;;;;;;;0.80;0.70;;;3.50;99.90;;;3.55;100.00;-20778.63;5081272;28;20259;-67
2021/04/25 03:00:31;;;;;;;0.77;0.70;;;3.40;99.90;;;3.43;100.00;-20775.28;5076868;28;20524;-67
2021/04/25 03:02:59;;;;;;;0.80;0.70;;;3.30;99.90;;;3.41;100.00;-20774.84;5087970;28;20234;-66
2021/04/25 03:05:28;;;;;;;0.80;0.70;;;3.30;99.90;;;3.25;100.00;-20770.41;5082990;28;20270;-67
2021/04/25 03:07:55;;;;;;;0.70;0.63;;;3.10;99.90;;;3.18;100.00;-20768.59;5077019;28;20242;-67
2021/04/25 03:10:24;;;;;;;0.80;0.80;;;3.00;99.90;;;3.14;100.00;-20767.59;5075845;28;20217;-67
2021/04/25 03:12:52;;;;;;;0.70;0.60;;;3.00;99.90;;;3.10;100.00;-20766.34;5080078;28;20216;-67
2021/04/25 03:15:21;;;;;;;0.77;0.70;;;2.90;99.90;;;3.03;100.00;-20764.41;5094383;28;20198;-67
2021/04/25 03:17:50;;;;;;;0.70;0.60;;;2.80;99.90;;;2.87;100.00;-20760.22;5090981;28;20282;-67
2021/04/25 03:20:22;;;;;;;0.80;0.70;;;2.70;99.90;;;2.81;100.00;-20758.53;5074603;28;20637;-68
2021/04/25 03:22:51;;;;;;;0.70;0.70;;;2.70;99.90;;;2.80;100.00;-20758.13;5093649;28;20282;-67
2021/04/25 03:25:19;;;;;;;0.80;0.70;;;2.60;99.90;;;2.70;100.00;-20755.31;5094565;28;20243;-66
2021/04/25 03:27:47;;;;;;;0.70;0.70;;;2.50;99.90;;;2.67;100.00;-20754.75;5090879;28;20695;-67
2021/04/25 03:30:17;;;;;;;0.80;0.80;;;2.50;99.90;;;2.83;100.00;-20759.09;5078062;28;20337;-67
2021/04/25 03:32:45;;;;;;;0.80;0.70;;;2.70;99.90;;;2.70;100.00;-20755.47;5091051;28;20574;-68
2021/04/25 03:35:17;;;;;;;0.80;0.70;;;2.50;99.90;;;2.67;100.00;-20754.63;5084126;28;20591;-66
2021/04/25 03:37:44;;;;;;;0.80;0.70;;;2.50;99.90;;;2.76;100.00;-20757.13;5085777;28;20623;-68
2021/04/25 03:40:15;;;;;;;0.80;0.70;;;2.50;99.90;;;2.69;100.00;-20755.19;5094064;28;20184;-67
2021/04/25 03:42:42;;;;;;;0.80;0.70;;;2.50;99.90;;;2.56;100.00;-20751.56;5085222;28;20687;-67
2021/04/25 03:45:14;;;;;;;0.70;0.70;;;2.30;99.90;;;2.53;100.00;-20750.84;5095460;28;20260;-67
2021/04/25 03:47:46;;;;;;;0.70;0.60;;;2.30;99.90;;;2.64;100.00;-20753.78;5102769;28;20208;-67
2021/04/25 03:50:16;;;;;;;0.80;0.80;;;2.30;99.90;;;2.76;100.00;-20757.13;5075171;28;20251;-66
2021/04/25 03:52:43;;;;;;;0.70;0.50;;;2.60;99.90;;;2.82;100.00;-20758.81;5089225;28;20789;-67
2021/04/25 03:55:14;;;;;;;0.90;0.80;;;2.60;99.90;;;2.69;100.00;-20755.19;5094393;28;20790;-66
2021/04/25 03:57:41;;;;;;;0.80;0.70;;;2.50;99.90;;;2.54;100.00;-20751.13;5094047;28;20462;-66
2021/04/25 04:00:11;;;;;;;0.80;0.75;;;2.40;99.90;;;2.41;100.00;-20747.66;5110986;28;20211;-67
2021/04/25 04:02:38;;;;;;;0.70;0.70;;;2.20;99.90;;;2.43;100.00;-20748.06;5084042;28;20652;-68
2021/04/25 04:05:06;;;;;;;0.80;0.70;;;2.20;99.90;;;2.49;100.00;-20749.75;5074678;28;20197;-67
2021/04/25 04:07:34;;;;;;;0.80;0.70;;;2.30;99.90;;;2.46;100.00;-20748.91;5080617;28;20180;-66
2021/04/25 04:10:01;;;;;;;0.73;0.60;;;2.30;99.90;;;2.54;100.00;-20751.00;5094694;28;20261;-67
2021/04/25 04:12:29;;;;;;;0.70;0.60;;;2.40;99.90;;;2.37;100.00;-20746.53;5093841;28;20227;-67
2021/04/25 04:14:56;;;;;;;0.70;0.70;;;2.20;99.90;;;2.37;100.00;-20746.53;5094430;28;20180;-67
2021/04/25 04:17:23;;;;;;;0.70;0.60;;;2.20;99.90;;;2.41;100.00;-20747.66;5093327;28;20200;-67
2021/04/25 04:19:50;;;;;;;0.80;0.70;;;2.20;99.90;;;2.47;100.00;-20749.03;5097689;28;20275;-67
2021/04/25 04:22:17;;;;;;;0.80;0.70;;;2.20;99.90;;;2.47;100.00;-20749.19;5088211;28;20203;-66
2021/04/25 04:24:45;;;;;;;0.80;0.70;;;2.30;99.90;;;2.41;100.00;-20747.50;5082151;28;20664;-66
2021/04/25 04:27:11;;;;;;;0.70;0.50;;;2.30;99.90;;;2.29;100.00;-20744.16;5072273;28;20453;-68
2021/04/25 04:29:39;;;;;;;0.80;0.77;;;2.10;99.90;;;2.21;100.00;-20742.06;5074257;28;20200;-67
2021/04/25 04:32:06;;;;;;;0.75;0.70;;;2.00;99.90;;;2.16;100.00;-20740.66;5077054;28;20189;-66
2021/04/25 04:34:36;;;;;;;0.70;0.60;;;2.00;99.90;;;2.16;100.00;-20740.66;5076547;28;20727;-67
2021/04/25 04:37:04;;;;;;;0.80;0.70;;;1.90;99.90;;;2.10;100.00;-20738.97;5074358;28;20181;-67
2021/04/25 04:39:31;;;;;;;0.80;0.80;;;1.90;99.90;;;2.09;100.00;-20738.72;5087482;28;20199;-67
2021/04/25 04:41:58;;;;;;;0.80;0.70;;;1.80;99.90;;;2.15;100.00;-20740.38;5077920;28;20262;-67
2021/04/25 04:44:26;;;;;;;0.70;0.60;;;1.90;99.90;;;2.13;100.00;-20739.97;5074416;28;20173;-66
2021/04/25 04:46:54;;;;;;;0.80;0.70;;;1.80;99.90;;;2.16;100.00;-20740.66;5079652;28;20200;-66
2021/04/25 04:49:21;;;;;;;0.80;0.70;;;1.90;99.90;;;2.12;100.00;-20739.53;5076148;28;20203;-67
2021/04/25 04:51:49;;;;;;;0.80;0.77;;;1.90;99.90;;;2.11;100.00;-20739.41;5074401;28;20220;-66
2021/04/25 04:54:16;;;;;;;0.70;0.70;;;1.80;99.90;;;2.24;100.00;-20742.75;5079711;28;20185;-66
2021/04/25 04:56:43;;;;;;;0.80;0.75;;;1.90;99.90;;;2.25;100.00;-20743.03;5083087;28;20217;-66
2021/04/25 04:59:12;;;;;;;0.70;0.60;;;1.90;99.90;;;2.23;100.00;-20742.63;5073821;28;20209;-66
2021/04/25 05:01:39;;;;;;;0.80;0.70;;;1.90;99.90;;;2.20;100.00;-20741.78;5081097;28;20699;-66
2021/04/25 05:04:07;;;;;;;0.80;0.73;;;1.90;99.90;;;2.27;100.00;-20743.72;5080868;28;20188;-66
2021/04/25 05:06:34;;;;;;;0.80;0.68;;;1.90;99.90;;;2.28;100.00;-20743.88;5080824;28;20713;-66
2021/04/25 05:09:02;;;;;;;0.80;0.70;;;2.00;99.90;;;2.29;100.00;-20744.16;5064855;28;20212;-67
2021/04/25 05:11:28;;;;;;;0.90;0.90;;;1.90;99.90;;;2.26;100.00;-20743.47;5074735;28;20184;-66
2021/04/25 05:13:56;;;;;;;0.80;0.70;;;2.00;99.90;;;2.24;100.00;-20742.91;5075915;28;20645;-66
2021/04/25 05:16:23;;;;;;;0.80;0.70;;;1.90;99.90;;;2.31;100.00;-20744.84;5092494;28;20196;-67
2021/04/25 05:18:50;;;;;;;0.80;0.70;;;2.00;99.90;;;2.47;100.00;-20749.03;5092480;28;20192;-66
2021/04/25 05:21:19;;;;;;;0.90;0.90;;;2.20;99.90;;;2.73;100.00;-20756.31;5092494;28;20192;-67
2021/04/25 05:23:47;;;;;;;0.77;0.70;;;2.50;99.90;;;2.84;100.00;-20759.38;5073340;28;20210;-66
2021/04/25 05:26:15;;;;;;;0.80;0.75;;;2.60;99.90;;;2.87;100.00;-20760.22;5086072;28;20275;-67
2021/04/25 05:28:42;;;;;;;0.80;0.80;;;2.60;99.90;;;2.97;100.00;-20762.72;5093188;28;20242;-67
2021/04/25 05:31:09;;;;;;;0.80;0.70;;;2.70;99.90;;;3.10;100.00;-20766.50;5083728;28;20189;-67
2021/04/25 05:33:36;;;;;;;0.70;0.60;;;2.80;99.90;;;3.17;100.00;-20768.31;5082525;28;20188;-67
2021/04/25 05:36:04;;;;;;;0.70;0.70;;;2.90;99.90;;;3.26;100.00;-20770.81;5085098;28;20230;-67
2021/04/25 05:38:32;;;;;;;0.80;0.70;;;3.00;99.90;;;3.34;100.00;-20773.03;5087023;28;20180;-67
2021/04/25 05:41:00;;;;;;;0.80;0.70;;;3.00;99.90;;;3.47;100.00;-20776.53;5086991;28;20197;-67
2021/04/25 05:43:27;;;;;;;0.70;0.60;;;3.10;99.90;;;3.58;100.00;-20779.47;5084201;28;20547;-68
2021/04/25 05:45:55;;;;;;;0.80;0.70;;;3.20;99.90;;;3.70;100.00;-20782.81;5072551;28;20614;-67
2021/04/25 05:48:23;;;;;;;0.80;0.70;;;3.30;99.90;;;3.73;100.00;-20783.66;5078628;28;20200;-67
2021/04/25 05:50:50;;;;;;;0.80;0.70;;;3.30;99.90;;;3.79;100.00;-20785.31;5091645;28;20207;-68
2021/04/25 05:53:17;;;;;;;0.80;0.70;;;3.40;99.90;;;3.87;100.00;-20787.41;5092582;28;20187;-67
2021/04/25 05:55:46;;;;;;;0.80;0.80;;;3.40;99.90;;;4.13;100.00;-20794.38;5078251;28;20604;-68
2021/04/25 05:58:15;;;;;;;0.70;0.60;;;3.60;99.90;;;4.31;100.00;-20799.41;5087990;28;20212;-67
2021/04/25 06:00:42;;;;;;;0.80;0.70;;;3.80;99.90;;;4.50;100.00;-20804.53;5087470;28;20213;-68
2021/04/25 06:03:09;;;;;;;0.80;0.70;;;3.90;99.90;;;4.57;100.00;-20806.50;5078103;28;20282;-68
2021/04/25 06:05:36;;;;;;;0.80;0.70;;;4.00;99.90;;;4.68;100.00;-20809.56;5092170;28;20554;-68
2021/04/25 06:08:04;;;;;;;0.80;0.68;;;4.10;99.90;;;4.92;100.00;-20815.97;5081005;28;20193;-68
2021/04/25 06:10:31;;;;;;;0.80;0.70;;;4.30;99.90;;;5.32;100.00;-20827.09;5080382;28;20238;-67
2021/04/25 06:12:59;;;;;;;0.70;0.60;;;4.50;99.90;;;5.47;100.00;-20831.00;5074490;28;20299;-67
2021/04/25 06:15:26;;;;;;;0.70;0.70;;;4.70;99.90;;;5.65;100.00;-20835.88;5080740;28;20204;-69
2021/04/25 06:17:53;;;;;;;0.70;0.60;;;4.90;99.90;;;6.07;100.00;-20847.41;5085169;28;20207;-67
2021/04/25 06:20:21;;;;;;;0.73;0.63;;;5.10;99.90;;;6.23;100.00;-20851.88;5082439;28;20739;-68
2021/04/25 06:22:49;;;;;;;0.70;0.60;;;5.30;99.90;;;6.36;100.00;-20855.22;5083844;28;20180;-67
2021/04/25 06:25:18;;;;;;;0.70;0.60;;;5.50;99.90;;;6.66;100.00;-20863.41;5083034;28;20228;-67
2021/04/25 06:27:45;;;;;;;0.70;0.60;;;5.60;99.90;;;6.76;100.00;-20866.31;5078608;28;20602;-67
2021/04/25 06:30:14;;;;;;;0.70;0.60;;;5.70;99.90;;;7.11;100.00;-20875.78;5081323;28;20197;-68
2021/04/25 06:32:42;;;;;;;0.70;0.60;;;5.90;99.90;;;7.38;100.00;-20883.00;5079169;28;20291;-67
2021/04/25 06:35:14;;;;;;;0.70;0.50;;;6.30;99.90;;;7.28;100.00;-20880.22;5082170;28;20196;-68
2021/04/25 06:37:42;;;;;;;0.80;0.60;;;6.50;99.90;;;7.43;100.00;-20884.53;5088399;28;20530;-67
2021/04/25 06:40:11;;;;;;;1.13;1.00;;;6.60;99.90;;;7.18;100.00;-20877.56;5092866;28;20513;-67
2021/04/25 06:42:39;;;;;;;0.80;0.80;;;6.50;99.90;;;7.24;100.00;-20879.38;5081544;28;20474;-68
2021/04/25 06:45:11;;;;;;;0.80;0.70;;;6.30;99.90;;;7.15;100.00;-20876.75;5092823;28;20430;-68
2021/04/25 06:47:40;;;;;;;0.70;0.57;;;6.30;99.00;;;7.04;100.00;-20873.69;5096773;28;20442;-67
2021/04/25 06:50:11;;;;;;;0.70;0.70;;;6.30;97.90;;;6.81;100.00;-20867.44;5081067;28;20681;-67
2021/04/25 06:52:39;;;;;;;0.70;0.60;;;6.20;95.80;;;7.25;100.00;-20879.53;5092820;28;20195;-68
2021/04/25 06:55:08;;;;;;;0.70;0.60;;;6.30;96.10;;;7.10;100.00;-20875.50;5089784;28;20212;-67
2021/04/25 06:57:36;;;;;;;0.70;0.50;;;6.50;94.40;;;7.07;100.00;-20874.66;5087694;28;20862;-67
2021/04/25 07:00:05;;;;;;;0.70;0.60;;;6.50;93.30;;;6.99;100.00;-20872.56;5087238;28;20187;-68
2021/04/25 07:02:32;;;;;;;0.70;0.70;;;6.50;92.50;;;7.08;100.00;-20874.94;5087181;28;20478;-67
2021/04/25 07:05:05;;;;;;;0.70;0.50;;;6.50;91.00;;;6.97;100.00;-20871.88;5093759;28;20465;-67
2021/04/25 07:07:33;;;;;;;0.70;0.60;;;6.60;91.20;;;7.65;100.00;-20890.50;5111832;28;20438;-68
2021/04/25 07:10:02;;;;;;;0.70;0.60;;;6.70;90.70;;;7.92;100.00;-20897.72;5111887;28;20534;-68
2021/04/25 07:12:31;;;;;;;4.10;1.73;;;6.70;89.00;;;7.77;100.00;-20893.53;5086059;28;20465;-68
2021/04/25 07:14:59;;;;;;;0.70;0.60;;;6.70;87.70;;;7.85;100.00;-20895.75;5093682;28;20434;-68
2021/04/25 07:17:27;;;;;;;0.90;0.80;;;6.70;86.80;;;7.66;100.00;-20890.78;5074632;28;21004;-67
2021/04/25 07:19:54;;;;;;;0.70;0.67;;;6.60;85.90;;;7.86;100.00;-20896.03;5082569;28;20540;-67
2021/04/25 07:22:23;;;;;;;0.70;0.60;;;6.80;86.30;;;7.98;100.00;-20899.38;5095381;28;20437;-68
2021/04/25 07:24:50;;;;;;;0.70;0.60;;;7.10;87.40;;;8.43;100.00;-20911.72;5095085;28;20446;-67
2021/04/25 07:27:17;;;;;;;0.70;0.60;;;7.50;86.10;;;8.53;100.00;-20914.34;5092863;28;20492;-68
2021/04/25 07:29:45;;;;;;;0.70;0.50;;;7.70;83.00;;;9.54;100.00;-20941.81;5091521;28;20476;-68
2021/04/25 07:32:12;;;;;;;0.70;0.60;;;8.30;78.20;;;9.61;100.00;-20943.75;5089463;28;20462;-67
2021/04/25 07:34:39;;;;;;;0.70;0.50;;;8.60;76.60;;;9.92;100.00;-20952.03;5081946;28;20447;-67
2021/04/25 07:37:07;;;;;;;0.80;0.60;;;9.10;74.00;;;12.21;100.00;-21014.00;5092115;28;20442;-68
2021/04/25 07:39:37;;;;;;;0.80;0.80;;;10.00;71.10;;;12.94;100.00;-21033.72;5095558;28;20437;-68
2021/04/25 07:42:06;;;;;;;0.70;0.60;;;10.80;60.00;;;12.42;100.00;-21019.78;5089782;28;20520;-67
2021/04/25 07:44:34;;;;;;;0.70;0.50;;;11.10;53.70;;;12.19;100.00;-21013.44;5075171;28;20517;-69
2021/04/25 07:47:01;;;;;;;0.70;0.60;;;10.80;51.80;;;13.17;100.00;-21039.94;5075178;28;20441;-66
2021/04/25 07:49:32;;;;;;;0.77;0.70;;;10.70;51.00;;;13.59;100.00;-21051.38;5074511;28;20468;-67
2021/04/25 07:51:59;;;;;;;0.80;0.60;;;11.20;51.40;;;13.25;100.00;-21042.13;5073894;28;20489;-67
2021/04/25 07:54:27;;;;;;;0.70;0.60;;;11.20;48.10;;;15.09;100.00;-21091.72;5074952;28;20438;-67
2021/04/25 07:56:55;;;;;;;0.80;0.70;;;10.80;45.40;;;13.73;100.00;-21055.09;5075406;28;20500;-67
2021/04/25 07:59:22;;;;;;;0.80;0.60;;;11.20;45.70;;;14.73;100.00;-21082.22;5081018;28;20449;-66
2021/04/25 08:01:49;;;;;;;0.80;0.80;;;10.40;44.30;;;13.96;100.00;-21061.28;5083014;28;20427;-66
2021/04/25 08:04:16;;;;;;;0.80;0.80;;;9.70;47.10;;;12.50;100.00;-21022.00;5092765;28;20468;-66
2021/04/25 08:06:44;;;;;;;0.70;0.60;;;9.30;46.70;;;11.56;100.00;-20996.59;5075979;28;20444;-66
2021/04/25 08:09:11;;;;;;;0.70;0.60;;;9.20;50.60;;;11.01;100.00;-20981.66;5074808;28;20442;-66
2021/04/25 08:11:38;;;;;;;0.70;0.60;;;8.90;51.00;;;11.21;100.00;-20986.91;5074768;28;20446;-66
2021/04/25 08:14:06;;;;;;;0.70;0.60;;;8.10;52.20;;;11.01;100.00;-20981.66;5087286;28;20452;-66
2021/04/25 08:16:34;;;;;;;0.80;0.80;;;8.20;55.70;;;11.24;100.00;-20987.88;5087611;28;20945;-66
2021/04/25 08:19:01;;;;;;;0.70;0.60;;;8.90;53.40;;;11.91;100.00;-21005.84;5086392;28;20541;-67
2021/04/25 08:21:30;;;;;;;0.70;0.60;;;9.20;51.40;;;11.18;100.00;-20986.22;5074474;28;20521;-72
2021/04/25 08:23:57;;;;;;;0.80;0.70;;;9.10;52.00;;;10.94;100.00;-20979.59;5092447;28;20448;-71
2021/04/25 08:26:25;;;;;;;0.70;0.60;;;8.80;51.50;;;10.54;100.00;-20968.78;5095035;28;20464;-69
2021/04/25 08:28:52;;;;;;;0.80;0.70;;;9.00;52.00;;;10.99;100.00;-20981.09;5095743;28;20441;-71
2021/04/25 08:31:21;;;;;;;0.70;0.60;;;9.50;50.60;;;12.76;100.00;-21029.03;5094395;28;20490;-71
2021/04/25 08:33:48;;;;;;;0.80;0.70;;;10.40;45.70;;;13.71;100.00;-21054.69;5079723;28;20481;-72
2021/04/25 08:36:15;;;;;;;0.80;0.60;;;9.90;45.80;;;13.25;100.00;-21042.13;5090075;28;20449;-72
2021/04/25 08:38:42;;;;;;;0.70;0.60;;;10.30;44.70;;;13.18;100.00;-21040.19;5088579;28;20443;-71
2021/04/25 08:41:15;;;;;;;0.70;0.60;;;10.70;44.50;;;13.57;100.00;-21050.81;5079088;28;21014;-71
2021/04/25 08:43:44;;;;;;;0.97;0.80;;;10.60;42.80;;;13.72;100.00;-21054.81;5078467;28;20973;-72
2021/04/25 08:46:16;;;;;;;0.70;0.60;;;11.30;42.10;;;14.11;100.00;-21065.28;5072541;28;20470;-71
2021/04/25 08:48:47;;;;;;;0.80;0.73;;;11.30;41.00;;;14.91;100.00;-21086.91;5077355;28;20443;-72
2021/04/25 08:51:17;;;;;;;0.80;0.70;;;11.60;35.80;;;15.73;100.00;-21109.03;5073660;28;20993;-71
2021/04/25 08:53:46;;;;;;;1.27;1.17;;;11.60;35.30;;;14.57;100.00;-21077.69;5088158;28;20775;-71
2021/04/25 08:56:15;;;;;;;0.70;0.60;;;11.10;36.80;;;13.82;100.00;-21057.44;5094775;28;20423;-71
2021/04/25 08:58:43;;;;;;;1.03;0.93;;;12.00;35.80;;;13.66;100.00;-21053.16;5083595;28;20502;-71
2021/04/25 09:01:11;;;;;;;0.80;0.70;;;12.30;34.80;;;14.60;100.00;-21078.50;5073745;28;20833;-71
2021/04/25 09:03:38;;;;;;;1.43;0.90;;;12.50;31.70;;;16.15;100.00;-21120.31;5079891;28;20480;-72
2021/04/25 09:06:11;;;;;;;0.80;0.70;;;12.40;28.60;;;14.97;100.00;-21088.56;5084444;28;20431;-71
2021/04/25 09:08:46;;;;;;;0.80;0.60;;;12.50;28.70;;;14.88;100.00;-21086.22;5073945;28;20446;-72
2021/04/25 09:11:30;;;;;;;0.70;0.60;;;12.00;28.80;;;15.38;100.00;-21099.69;5072002;28;21026;-72
2021/04/25 09:14:21;;;;;;;0.70;0.60;;;11.50;27.60;;;16.07;100.00;-21118.09;5077452;28;20971;-73
2021/04/25 09:16:59;;;;;;;1.47;1.37;;;12.20;29.70;;;15.77;99.34;-21110.00;5079575;28;20449;-72
2021/04/25 09:19:48;;;;;;;0.73;0.60;;;12.50;26.60;;;16.68;97.70;-21134.59;5092534;28;20416;-71
2021/04/25 09:22:18;;;;;;;0.80;0.63;;;12.10;25.40;;;16.32;96.03;-21124.97;5087275;28;20888;-72
2021/04/25 09:24:45;;;;;;;1.37;1.27;;;12.00;25.80;;;15.51;100.00;-21103.00;5083005;28;20824;-72
2021/04/25 09:27:25;;;;;;;0.80;0.70;;;12.20;27.70;;;15.00;100.00;-21089.38;5091055;28;20411;-71
2021/04/25 09:29:58;;;;;;;0.80;0.70;;;13.10;27.90;;;16.57;100.00;-21131.56;5081322;28;20455;-71
2021/04/25 09:32:29;;;;;;;0.70;0.60;;;12.80;24.40;;;16.10;98.70;-21119.06;5073274;28;20441;-71
2021/04/25 09:35:10;;;;;;;0.80;0.60;;;13.40;25.30;;;16.11;100.00;-21119.22;5088332;28;20448;-71
2021/04/25 09:37:42;;;;;;;0.80;0.60;;;13.50;23.70;;;17.06;99.48;-21144.75;5086652;28;20402;-71
2021/04/25 09:40:12;;;;;;;0.80;0.70;;;13.80;22.40;;;18.16;92.26;-21174.34;5084144;28;20430;-71
2021/04/25 09:43:01;;;;;;;1.37;1.27;;;13.00;20.00;;;16.85;95.10;-21139.25;5088127;28;20806;-72
2021/04/25 09:45:32;;;;;;;1.23;1.13;;;13.20;24.60;;;18.41;91.29;-21180.94;5096190;28;20464;-72
2021/04/25 09:48:18;;;;;;;0.90;0.90;;;12.90;20.80;;;17.47;88.84;-21155.84;5084563;28;20439;-73
2021/04/25 09:51:03;;;;;;;0.70;0.60;;;12.60;18.80;;;16.25;91.35;-21122.91;5073100;28;20455;-72
2021/04/25 09:53:34;;;;;;;0.70;0.63;;;13.20;21.00;;;15.84;92.05;-21112.06;5084176;28;20930;-72
2021/04/25 09:56:01;;;;;;;0.70;0.60;;;13.30;21.00;;;17.94;91.26;-21168.47;5093390;28;20426;-72
2021/04/25 09:58:28;;;;;;;0.80;0.70;;;13.30;18.20;;;17.41;89.39;-21154.06;5092375;28;20829;-72
2021/04/25 10:00:55;;;;;;;1.27;0.80;;;13.70;17.60;;;16.12;89.72;-21119.63;5093214;28;20423;-71
2021/04/25 10:03:32;;;;;;;0.97;0.90;;;13.50;18.20;;;16.02;93.77;-21116.75;5089669;28;20453;-72
2021/04/25 10:06:04;;;;;;;1.00;0.80;;;14.00;18.30;;;15.56;94.28;-21104.38;5091651;28;20442;-71
2021/04/25 10:08:35;;;;;;;0.80;0.60;;;14.00;17.00;;;16.83;93.79;-21138.72;5093098;28;20499;-71
2021/04/25 10:11:05;;;;;;;0.77;0.60;;;14.30;18.40;;;16.09;92.97;-21118.66;5083907;28;20432;-71
2021/04/25 10:13:44;;;;;;;0.80;0.63;;;14.20;16.80;;;17.25;91.24;-21149.97;5085475;28;20444;-72
2021/04/25 10:16:11;;;;;;;0.80;0.70;;;13.70;16.40;;;17.90;89.83;-21167.25;5090954;28;20408;-73
2021/04/25 10:18:39;;;;;;;0.70;0.60;;;13.40;17.00;;;19.11;88.53;-21199.69;5074786;28;20447;-72
2021/04/25 10:21:08;;;;;;;0.70;0.60;;;13.40;18.40;;;18.58;87.09;-21185.72;5092938;28;20898;-72
2021/04/25 10:23:38;;;;;;;2.10;0.80;;;13.60;17.90;;;19.19;88.46;-21202.00;5110825;28;20465;-73